メインページ
METAR-TAF:

METAR-TAF

空港 :

グラン・カナリア空港

グラン・カナリア島, スペイン

緯度: 27-56N, 経度: 015-23W, 海抜: 23m

現時点の気象観測

当レポートは15分前の21:00(UTC)に作成
の風 16kt、最大26ktの突風を伴う、北/北西から北東の間で変化する
気温 23°C
湿度 69%
気圧 1016 hPa
視程10km以上
高度3000ftの雲はほとんどない

METAR: GCLP 192100Z 01016G26KT 340V050 9999 FEW030 23/17 Q1016 NOSIG

時間: 22:15 (21:15 UTC)

予報

当レポートは1時間15分前の20:00(UTC)に作成
予報は19日の 21時(UTC)から 20日の 21時(UTC)まで有効
の風 18kt
視程10km以上
高度2500ftの雲は散在している

TAF: GCLP 192000Z 1921/2021 36018KT 9999 SCT025 TX27/2014Z TN22/1923Z

4,000以上の空港の気象観測と天気予報(METAR報とTAF報)

利用可能な観測所は地図上に黄色い丸と赤い丸で示す。

丸の上にカーソルを重ねると観測所名を参照できる。

次にクリックすると気象観測と天気予報を参照できる。

マップの切り替え:黒色「×」印の緑ボタンをクリックして拡大、「-」印の緑ボタンをクリックして縮小、緑色の三角印をクリックして隣りの地図に切り替え


METAR-TAF: